sensor_id;sensor_type;location;lat;lon;timestamp;P1;durP1;ratioP1;P2;durP2;ratioP2
1128;SDS011;553;51.038;7.216;2023-01-28T00:01:17;7.95;;;4.82;;
1128;SDS011;553;51.038;7.216;2023-01-28T00:03:47;6.25;;;4.95;;
1128;SDS011;553;51.038;7.216;2023-01-28T00:06:15;6.22;;;4.82;;
1128;SDS011;553;51.038;7.216;2023-01-28T00:08:42;5.63;;;3.60;;
1128;SDS011;553;51.038;7.216;2023-01-28T00:11:09;8.30;;;5.25;;
1128;SDS011;553;51.038;7.216;2023-01-28T00:13:38;7.40;;;4.65;;
1128;SDS011;553;51.038;7.216;2023-01-28T00:16:05;7.88;;;5.30;;
1128;SDS011;553;51.038;7.216;2023-01-28T00:18:36;9.10;;;5.30;;
1128;SDS011;553;51.038;7.216;2023-01-28T00:21:04;7.00;;;4.60;;
1128;SDS011;553;51.038;7.216;2023-01-28T00:23:34;8.00;;;5.40;;
1128;SDS011;553;51.038;7.216;2023-01-28T00:26:03;8.55;;;5.75;;
1128;SDS011;553;51.038;7.216;2023-01-28T00:28:31;6.55;;;4.50;;
1128;SDS011;553;51.038;7.216;2023-01-28T00:31:04;6.22;;;4.60;;
1128;SDS011;553;51.038;7.216;2023-01-28T00:33:32;8.65;;;5.00;;
1128;SDS011;553;51.038;7.216;2023-01-28T00:35:59;7.90;;;5.05;;
1128;SDS011;553;51.038;7.216;2023-01-28T00:38:26;8.50;;;5.13;;
1128;SDS011;553;51.038;7.216;2023-01-28T00:40:54;6.32;;;4.28;;
1128;SDS011;553;51.038;7.216;2023-01-28T00:43:21;9.32;;;4.22;;
1128;SDS011;553;51.038;7.216;2023-01-28T00:45:48;7.20;;;4.93;;
1128;SDS011;553;51.038;7.216;2023-01-28T00:48:15;6.60;;;4.25;;
1128;SDS011;553;51.038;7.216;2023-01-28T00:50:43;7.38;;;5.28;;
1128;SDS011;553;51.038;7.216;2023-01-28T00:53:10;7.90;;;4.72;;
1128;SDS011;553;51.038;7.216;2023-01-28T00:55:37;8.60;;;4.88;;
1128;SDS011;553;51.038;7.216;2023-01-28T00:58:04;8.48;;;5.10;;
1128;SDS011;553;51.038;7.216;2023-01-28T01:00:31;7.05;;;4.88;;
1128;SDS011;553;51.038;7.216;2023-01-28T01:02:58;8.15;;;5.35;;
1128;SDS011;553;51.038;7.216;2023-01-28T01:05:24;8.55;;;4.20;;
1128;SDS011;553;51.038;7.216;2023-01-28T01:07:51;8.90;;;4.97;;
1128;SDS011;553;51.038;7.216;2023-01-28T01:10:18;8.68;;;4.88;;
1128;SDS011;553;51.038;7.216;2023-01-28T01:12:46;7.68;;;4.65;;
1128;SDS011;553;51.038;7.216;2023-01-28T01:15:13;7.65;;;4.38;;
1128;SDS011;553;51.038;7.216;2023-01-28T01:17:42;5.75;;;4.82;;
1128;SDS011;553;51.038;7.216;2023-01-28T01:20:12;6.53;;;4.40;;
1128;SDS011;553;51.038;7.216;2023-01-28T01:22:42;7.90;;;5.53;;
1128;SDS011;553;51.038;7.216;2023-01-28T01:25:09;7.75;;;5.10;;
1128;SDS011;553;51.038;7.216;2023-01-28T01:27:39;8.07;;;4.97;;
1128;SDS011;553;51.038;7.216;2023-01-28T01:30:06;8.02;;;5.57;;
1128;SDS011;553;51.038;7.216;2023-01-28T01:32:34;8.32;;;4.80;;
1128;SDS011;553;51.038;7.216;2023-01-28T01:35:02;9.93;;;5.25;;
1128;SDS011;553;51.038;7.216;2023-01-28T01:37:31;8.93;;;4.75;;
1128;SDS011;553;51.038;7.216;2023-01-28T01:39:59;7.18;;;4.63;;
1128;SDS011;553;51.038;7.216;2023-01-28T01:42:30;8.55;;;5.00;;
1128;SDS011;553;51.038;7.216;2023-01-28T01:47:38;8.32;;;5.40;;
1128;SDS011;553;51.038;7.216;2023-01-28T01:52:45;9.10;;;6.05;;
1128;SDS011;553;51.038;7.216;2023-01-28T01:55:16;10.43;;;5.00;;
1128;SDS011;553;51.038;7.216;2023-01-28T01:57:46;8.95;;;5.70;;
1128;SDS011;553;51.038;7.216;2023-01-28T02:00:16;8.27;;;5.13;;
1128;SDS011;553;51.038;7.216;2023-01-28T02:02:46;9.35;;;5.22;;
1128;SDS011;553;51.038;7.216;2023-01-28T02:05:17;9.43;;;6.20;;
1128;SDS011;553;51.038;7.216;2023-01-28T02:07:49;9.38;;;5.80;;
1128;SDS011;553;51.038;7.216;2023-01-28T02:10:21;10.10;;;6.38;;
1128;SDS011;553;51.038;7.216;2023-01-28T02:12:50;10.63;;;6.30;;
1128;SDS011;553;51.038;7.216;2023-01-28T02:15:24;10.27;;;6.00;;
1128;SDS011;553;51.038;7.216;2023-01-28T02:17:52;12.40;;;5.78;;
1128;SDS011;553;51.038;7.216;2023-01-28T02:28:40;7.35;;;4.97;;
1128;SDS011;553;51.038;7.216;2023-01-28T02:31:20;10.27;;;5.85;;
1128;SDS011;553;51.038;7.216;2023-01-28T02:36:40;9.60;;;6.53;;
1128;SDS011;553;51.038;7.216;2023-01-28T02:39:24;10.93;;;5.55;;
1128;SDS011;553;51.038;7.216;2023-01-28T02:41:56;8.35;;;5.07;;
1128;SDS011;553;51.038;7.216;2023-01-28T02:44:29;9.00;;;5.43;;
1128;SDS011;553;51.038;7.216;2023-01-28T02:46:56;10.18;;;6.13;;
1128;SDS011;553;51.038;7.216;2023-01-28T02:49:43;8.63;;;5.55;;
1128;SDS011;553;51.038;7.216;2023-01-28T02:52:20;9.18;;;6.00;;
1128;SDS011;553;51.038;7.216;2023-01-28T02:55:16;9.95;;;6.25;;
1128;SDS011;553;51.038;7.216;2023-01-28T02:58:10;9.40;;;5.07;;
1128;SDS011;553;51.038;7.216;2023-01-28T03:03:36;10.93;;;6.40;;
1128;SDS011;553;51.038;7.216;2023-01-28T03:06:06;10.52;;;5.90;;
1128;SDS011;553;51.038;7.216;2023-01-28T03:08:45;8.30;;;5.85;;
1128;SDS011;553;51.038;7.216;2023-01-28T03:11:32;11.00;;;6.13;;
1128;SDS011;553;51.038;7.216;2023-01-28T03:14:22;9.98;;;5.90;;
1128;SDS011;553;51.038;7.216;2023-01-28T03:17:11;11.88;;;6.38;;
1128;SDS011;553;51.038;7.216;2023-01-28T03:20:02;13.40;;;7.45;;
1128;SDS011;553;51.038;7.216;2023-01-28T03:22:50;14.75;;;8.18;;
1128;SDS011;553;51.038;7.216;2023-01-28T03:25:37;11.85;;;7.60;;
1128;SDS011;553;51.038;7.216;2023-01-28T03:28:27;15.82;;;8.73;;
1128;SDS011;553;51.038;7.216;2023-01-28T03:31:16;14.52;;;9.05;;
1128;SDS011;553;51.038;7.216;2023-01-28T03:34:04;12.43;;;7.90;;
1128;SDS011;553;51.038;7.216;2023-01-28T03:36:51;16.25;;;9.45;;
1128;SDS011;553;51.038;7.216;2023-01-28T03:39:37;13.27;;;7.75;;
1128;SDS011;553;51.038;7.216;2023-01-28T03:42:08;15.40;;;8.77;;
1128;SDS011;553;51.038;7.216;2023-01-28T03:44:47;14.30;;;8.73;;
1128;SDS011;553;51.038;7.216;2023-01-28T03:47:17;13.05;;;7.95;;
1128;SDS011;553;51.038;7.216;2023-01-28T03:49:49;12.63;;;7.85;;
1128;SDS011;553;51.038;7.216;2023-01-28T03:52:20;12.68;;;7.65;;
1128;SDS011;553;51.038;7.216;2023-01-28T03:54:57;11.02;;;7.65;;
1128;SDS011;553;51.038;7.216;2023-01-28T03:57:26;16.75;;;8.20;;
1128;SDS011;553;51.038;7.216;2023-01-28T03:59:53;11.73;;;7.85;;
1128;SDS011;553;51.038;7.216;2023-01-28T04:02:21;13.15;;;8.25;;
1128;SDS011;553;51.038;7.216;2023-01-28T04:04:50;11.77;;;7.63;;
1128;SDS011;553;51.038;7.216;2023-01-28T04:07:17;16.38;;;8.05;;
1128;SDS011;553;51.038;7.216;2023-01-28T04:10:10;12.05;;;7.55;;
1128;SDS011;553;51.038;7.216;2023-01-28T04:12:45;12.10;;;8.18;;
1128;SDS011;553;51.038;7.216;2023-01-28T04:15:15;11.25;;;6.50;;
1128;SDS011;553;51.038;7.216;2023-01-28T04:17:45;14.25;;;7.68;;
1128;SDS011;553;51.038;7.216;2023-01-28T04:20:25;9.48;;;6.35;;
1128;SDS011;553;51.038;7.216;2023-01-28T04:22:53;10.93;;;7.50;;
1128;SDS011;553;51.038;7.216;2023-01-28T04:25:21;9.32;;;6.63;;
1128;SDS011;553;51.038;7.216;2023-01-28T04:27:47;12.93;;;8.00;;
1128;SDS011;553;51.038;7.216;2023-01-28T04:30:20;11.20;;;6.82;;
1128;SDS011;553;51.038;7.216;2023-01-28T04:33:01;14.07;;;8.18;;
1128;SDS011;553;51.038;7.216;2023-01-28T04:35:40;10.68;;;7.43;;
1128;SDS011;553;51.038;7.216;2023-01-28T04:38:20;12.40;;;7.60;;
1128;SDS011;553;51.038;7.216;2023-01-28T04:40:56;10.75;;;6.50;;
1128;SDS011;553;51.038;7.216;2023-01-28T04:43:26;11.18;;;7.00;;
1128;SDS011;553;51.038;7.216;2023-01-28T04:46:12;11.27;;;6.97;;
1128;SDS011;553;51.038;7.216;2023-01-28T04:48:51;13.88;;;7.45;;
1128;SDS011;553;51.038;7.216;2023-01-28T04:51:37;11.52;;;6.78;;
1128;SDS011;553;51.038;7.216;2023-01-28T04:54:30;10.98;;;6.50;;
1128;SDS011;553;51.038;7.216;2023-01-28T04:57:00;12.50;;;7.28;;
1128;SDS011;553;51.038;7.216;2023-01-28T04:59:27;10.70;;;7.35;;
1128;SDS011;553;51.038;7.216;2023-01-28T05:01:54;10.57;;;6.75;;
1128;SDS011;553;51.038;7.216;2023-01-28T05:04:21;11.27;;;7.63;;
1128;SDS011;553;51.038;7.216;2023-01-28T05:06:48;9.75;;;6.35;;
1128;SDS011;553;51.038;7.216;2023-01-28T05:09:20;11.57;;;7.15;;
1128;SDS011;553;51.038;7.216;2023-01-28T05:11:49;10.48;;;6.70;;
1128;SDS011;553;51.038;7.216;2023-01-28T05:14:15;11.25;;;7.72;;
1128;SDS011;553;51.038;7.216;2023-01-28T05:17:01;13.07;;;7.80;;
1128;SDS011;553;51.038;7.216;2023-01-28T05:19:27;16.90;;;9.02;;
1128;SDS011;553;51.038;7.216;2023-01-28T05:21:55;10.52;;;6.97;;
1128;SDS011;553;51.038;7.216;2023-01-28T05:24:29;11.48;;;7.78;;
1128;SDS011;553;51.038;7.216;2023-01-28T05:26:56;10.50;;;6.35;;
1128;SDS011;553;51.038;7.216;2023-01-28T05:29:23;12.25;;;6.43;;
1128;SDS011;553;51.038;7.216;2023-01-28T05:31:50;10.70;;;7.07;;
1128;SDS011;553;51.038;7.216;2023-01-28T05:34:17;9.70;;;7.00;;
1128;SDS011;553;51.038;7.216;2023-01-28T05:36:44;8.32;;;6.40;;
1128;SDS011;553;51.038;7.216;2023-01-28T05:39:37;9.35;;;6.88;;
1128;SDS011;553;51.038;7.216;2023-01-28T05:42:04;8.00;;;5.82;;
1128;SDS011;553;51.038;7.216;2023-01-28T05:44:33;8.95;;;6.20;;
1128;SDS011;553;51.038;7.216;2023-01-28T05:47:26;10.57;;;6.72;;
1128;SDS011;553;51.038;7.216;2023-01-28T05:50:19;11.50;;;8.25;;
1128;SDS011;553;51.038;7.216;2023-01-28T05:53:06;12.50;;;9.23;;
1128;SDS011;553;51.038;7.216;2023-01-28T05:55:34;10.48;;;7.53;;
1128;SDS011;553;51.038;7.216;2023-01-28T05:58:01;10.20;;;7.20;;
1128;SDS011;553;51.038;7.216;2023-01-28T06:00:28;12.85;;;8.85;;
1128;SDS011;553;51.038;7.216;2023-01-28T06:02:55;8.95;;;7.05;;
1128;SDS011;553;51.038;7.216;2023-01-28T06:05:22;12.10;;;7.30;;
1128;SDS011;553;51.038;7.216;2023-01-28T06:07:49;9.75;;;6.30;;
1128;SDS011;553;51.038;7.216;2023-01-28T06:10:16;11.45;;;6.90;;
1128;SDS011;553;51.038;7.216;2023-01-28T06:12:43;9.05;;;6.03;;
1128;SDS011;553;51.038;7.216;2023-01-28T06:15:30;9.95;;;5.95;;
1128;SDS011;553;51.038;7.216;2023-01-28T06:18:00;12.50;;;7.75;;
1128;SDS011;553;51.038;7.216;2023-01-28T06:20:30;9.18;;;6.82;;
1128;SDS011;553;51.038;7.216;2023-01-28T06:22:58;10.52;;;6.45;;
1128;SDS011;553;51.038;7.216;2023-01-28T06:25:25;12.43;;;8.48;;
1128;SDS011;553;51.038;7.216;2023-01-28T06:27:52;18.33;;;11.35;;
1128;SDS011;553;51.038;7.216;2023-01-28T06:30:19;13.75;;;8.38;;
1128;SDS011;553;51.038;7.216;2023-01-28T06:32:46;13.05;;;8.70;;
1128;SDS011;553;51.038;7.216;2023-01-28T06:35:12;12.50;;;7.95;;
1128;SDS011;553;51.038;7.216;2023-01-28T06:37:39;11.30;;;7.40;;
1128;SDS011;553;51.038;7.216;2023-01-28T06:40:07;17.45;;;9.70;;
1128;SDS011;553;51.038;7.216;2023-01-28T06:42:34;17.90;;;10.15;;
1128;SDS011;553;51.038;7.216;2023-01-28T06:45:01;14.80;;;7.82;;
1128;SDS011;553;51.038;7.216;2023-01-28T06:47:27;8.25;;;6.85;;
1128;SDS011;553;51.038;7.216;2023-01-28T06:49:54;13.10;;;7.55;;
1128;SDS011;553;51.038;7.216;2023-01-28T06:52:21;10.77;;;7.32;;
1128;SDS011;553;51.038;7.216;2023-01-28T06:54:47;9.18;;;6.55;;
1128;SDS011;553;51.038;7.216;2023-01-28T06:57:14;11.85;;;6.95;;
1128;SDS011;553;51.038;7.216;2023-01-28T06:59:41;11.27;;;7.50;;
1128;SDS011;553;51.038;7.216;2023-01-28T07:02:08;11.40;;;6.75;;
1128;SDS011;553;51.038;7.216;2023-01-28T07:04:36;9.70;;;6.85;;
1128;SDS011;553;51.038;7.216;2023-01-28T07:07:03;10.18;;;6.20;;
1128;SDS011;553;51.038;7.216;2023-01-28T07:09:30;9.32;;;6.30;;
1128;SDS011;553;51.038;7.216;2023-01-28T07:11:56;10.40;;;6.63;;
1128;SDS011;553;51.038;7.216;2023-01-28T07:14:23;9.35;;;6.75;;
1128;SDS011;553;51.038;7.216;2023-01-28T07:16:50;9.68;;;6.68;;
1128;SDS011;553;51.038;7.216;2023-01-28T07:19:16;8.48;;;6.35;;
1128;SDS011;553;51.038;7.216;2023-01-28T07:21:43;10.38;;;6.28;;
1128;SDS011;553;51.038;7.216;2023-01-28T07:24:10;7.43;;;5.55;;
1128;SDS011;553;51.038;7.216;2023-01-28T07:26:37;6.93;;;5.50;;
1128;SDS011;553;51.038;7.216;2023-01-28T07:29:03;8.95;;;6.50;;
1128;SDS011;553;51.038;7.216;2023-01-28T07:31:30;8.57;;;6.00;;
1128;SDS011;553;51.038;7.216;2023-01-28T07:33:57;9.15;;;6.10;;
1128;SDS011;553;51.038;7.216;2023-01-28T07:36:24;6.57;;;5.38;;
1128;SDS011;553;51.038;7.216;2023-01-28T07:38:51;7.70;;;5.88;;
1128;SDS011;553;51.038;7.216;2023-01-28T07:41:17;9.60;;;7.00;;
1128;SDS011;553;51.038;7.216;2023-01-28T07:43:44;8.68;;;6.20;;
1128;SDS011;553;51.038;7.216;2023-01-28T07:46:11;12.00;;;8.98;;
1128;SDS011;553;51.038;7.216;2023-01-28T07:48:38;11.15;;;8.95;;
1128;SDS011;553;51.038;7.216;2023-01-28T07:51:04;11.00;;;6.88;;
1128;SDS011;553;51.038;7.216;2023-01-28T07:53:32;9.90;;;7.60;;
1128;SDS011;553;51.038;7.216;2023-01-28T07:55:59;8.45;;;6.35;;
1128;SDS011;553;51.038;7.216;2023-01-28T07:58:26;7.50;;;5.57;;
1128;SDS011;553;51.038;7.216;2023-01-28T08:00:57;12.23;;;6.45;;
1128;SDS011;553;51.038;7.216;2023-01-28T08:03:24;10.18;;;7.07;;
1128;SDS011;553;51.038;7.216;2023-01-28T08:05:52;8.73;;;6.90;;
1128;SDS011;553;51.038;7.216;2023-01-28T08:08:24;10.93;;;7.40;;
1128;SDS011;553;51.038;7.216;2023-01-28T08:10:52;14.07;;;7.72;;
1128;SDS011;553;51.038;7.216;2023-01-28T08:13:19;11.23;;;6.78;;
1128;SDS011;553;51.038;7.216;2023-01-28T08:15:46;60.42;;;32.28;;
1128;SDS011;553;51.038;7.216;2023-01-28T08:18:14;17.50;;;11.05;;
1128;SDS011;553;51.038;7.216;2023-01-28T08:20:42;12.35;;;8.02;;
1128;SDS011;553;51.038;7.216;2023-01-28T08:23:15;8.40;;;6.57;;
1128;SDS011;553;51.038;7.216;2023-01-28T08:25:48;29.67;;;12.68;;
1128;SDS011;553;51.038;7.216;2023-01-28T08:28:15;28.38;;;17.52;;
1128;SDS011;553;51.038;7.216;2023-01-28T08:30:42;10.95;;;7.32;;
1128;SDS011;553;51.038;7.216;2023-01-28T08:33:10;14.70;;;10.32;;
1128;SDS011;553;51.038;7.216;2023-01-28T08:35:38;9.95;;;7.50;;
1128;SDS011;553;51.038;7.216;2023-01-28T08:38:05;11.02;;;8.45;;
1128;SDS011;553;51.038;7.216;2023-01-28T08:40:33;12.00;;;8.70;;
1128;SDS011;553;51.038;7.216;2023-01-28T08:43:01;13.82;;;9.55;;
1128;SDS011;553;51.038;7.216;2023-01-28T08:45:28;12.95;;;8.20;;
1128;SDS011;553;51.038;7.216;2023-01-28T08:48:05;8.90;;;6.43;;
1128;SDS011;553;51.038;7.216;2023-01-28T08:50:36;11.90;;;6.53;;
1128;SDS011;553;51.038;7.216;2023-01-28T08:53:05;10.15;;;7.30;;
1128;SDS011;553;51.038;7.216;2023-01-28T08:55:36;9.32;;;6.55;;
1128;SDS011;553;51.038;7.216;2023-01-28T08:58:07;11.27;;;7.32;;
1128;SDS011;553;51.038;7.216;2023-01-28T09:00:37;14.68;;;11.15;;
1128;SDS011;553;51.038;7.216;2023-01-28T09:03:04;11.60;;;7.20;;
1128;SDS011;553;51.038;7.216;2023-01-28T09:05:34;11.82;;;7.13;;
1128;SDS011;553;51.038;7.216;2023-01-28T09:08:03;9.52;;;6.63;;
1128;SDS011;553;51.038;7.216;2023-01-28T09:10:31;10.77;;;6.13;;
1128;SDS011;553;51.038;7.216;2023-01-28T09:13:02;10.32;;;6.68;;
1128;SDS011;553;51.038;7.216;2023-01-28T09:15:33;9.15;;;5.90;;
1128;SDS011;553;51.038;7.216;2023-01-28T09:18:01;12.18;;;9.38;;
1128;SDS011;553;51.038;7.216;2023-01-28T09:20:28;8.48;;;5.82;;
1128;SDS011;553;51.038;7.216;2023-01-28T09:22:54;9.75;;;7.35;;
1128;SDS011;553;51.038;7.216;2023-01-28T09:25:21;11.82;;;8.38;;
1128;SDS011;553;51.038;7.216;2023-01-28T09:27:48;11.52;;;7.72;;
1128;SDS011;553;51.038;7.216;2023-01-28T09:30:14;18.77;;;13.18;;
1128;SDS011;553;51.038;7.216;2023-01-28T09:32:42;12.43;;;8.60;;
1128;SDS011;553;51.038;7.216;2023-01-28T09:35:09;12.90;;;6.60;;
1128;SDS011;553;51.038;7.216;2023-01-28T09:37:37;11.57;;;7.30;;
1128;SDS011;553;51.038;7.216;2023-01-28T09:40:04;16.80;;;8.85;;
1128;SDS011;553;51.038;7.216;2023-01-28T09:43:19;9.05;;;6.82;;
1128;SDS011;553;51.038;7.216;2023-01-28T09:45:35;9.23;;;7.63;;
1128;SDS011;553;51.038;7.216;2023-01-28T09:48:12;11.10;;;8.13;;
1128;SDS011;553;51.038;7.216;2023-01-28T09:50:46;9.07;;;6.65;;
1128;SDS011;553;51.038;7.216;2023-01-28T09:53:22;11.68;;;8.05;;
1128;SDS011;553;51.038;7.216;2023-01-28T09:55:55;12.15;;;8.27;;
1128;SDS011;553;51.038;7.216;2023-01-28T09:58:36;11.75;;;8.38;;
1128;SDS011;553;51.038;7.216;2023-01-28T10:14:44;10.57;;;7.75;;
1128;SDS011;553;51.038;7.216;2023-01-28T10:20:02;10.40;;;8.32;;
1128;SDS011;553;51.038;7.216;2023-01-28T10:22:44;9.25;;;7.20;;
1128;SDS011;553;51.038;7.216;2023-01-28T10:25:21;9.75;;;7.35;;
1128;SDS011;553;51.038;7.216;2023-01-28T10:27:50;11.77;;;7.95;;
1128;SDS011;553;51.038;7.216;2023-01-28T10:30:21;10.45;;;7.47;;
1128;SDS011;553;51.038;7.216;2023-01-28T10:33:03;10.30;;;7.50;;
1128;SDS011;553;51.038;7.216;2023-01-28T10:35:32;12.85;;;9.55;;
1128;SDS011;553;51.038;7.216;2023-01-28T10:38:05;13.35;;;8.82;;
1128;SDS011;553;51.038;7.216;2023-01-28T10:40:35;12.73;;;8.75;;
1128;SDS011;553;51.038;7.216;2023-01-28T10:43:02;17.67;;;10.80;;
1128;SDS011;553;51.038;7.216;2023-01-28T10:45:29;12.50;;;9.70;;
1128;SDS011;553;51.038;7.216;2023-01-28T10:48:16;9.27;;;7.13;;
1128;SDS011;553;51.038;7.216;2023-01-28T10:50:57;10.15;;;8.20;;
1128;SDS011;553;51.038;7.216;2023-01-28T10:53:43;12.98;;;7.32;;
1128;SDS011;553;51.038;7.216;2023-01-28T10:56:16;9.10;;;7.10;;
1128;SDS011;553;51.038;7.216;2023-01-28T10:59:00;10.48;;;7.50;;
1128;SDS011;553;51.038;7.216;2023-01-28T11:04:22;13.57;;;9.40;;
1128;SDS011;553;51.038;7.216;2023-01-28T11:06:52;11.32;;;8.43;;
1128;SDS011;553;51.038;7.216;2023-01-28T11:09:24;9.75;;;7.50;;
1128;SDS011;553;51.038;7.216;2023-01-28T11:11:57;10.18;;;8.35;;
1128;SDS011;553;51.038;7.216;2023-01-28T11:14:25;11.75;;;8.02;;
1128;SDS011;553;51.038;7.216;2023-01-28T11:16:53;12.10;;;8.10;;
1128;SDS011;553;51.038;7.216;2023-01-28T11:19:25;11.52;;;8.27;;
1128;SDS011;553;51.038;7.216;2023-01-28T11:22:00;12.65;;;8.10;;
1128;SDS011;553;51.038;7.216;2023-01-28T11:24:29;11.68;;;7.70;;
1128;SDS011;553;51.038;7.216;2023-01-28T11:27:00;11.48;;;7.68;;
1128;SDS011;553;51.038;7.216;2023-01-28T11:29:37;14.73;;;7.82;;
1128;SDS011;553;51.038;7.216;2023-01-28T11:32:05;12.77;;;8.45;;
1128;SDS011;553;51.038;7.216;2023-01-28T11:34:49;10.82;;;8.27;;
1128;SDS011;553;51.038;7.216;2023-01-28T11:37:19;9.32;;;7.88;;
1128;SDS011;553;51.038;7.216;2023-01-28T11:39:48;11.55;;;7.63;;
1128;SDS011;553;51.038;7.216;2023-01-28T11:42:16;13.80;;;8.00;;
1128;SDS011;553;51.038;7.216;2023-01-28T11:44:47;12.48;;;7.90;;
1128;SDS011;553;51.038;7.216;2023-01-28T11:52:59;11.60;;;7.95;;
1128;SDS011;553;51.038;7.216;2023-01-28T11:56:01;13.77;;;9.57;;
1128;SDS011;553;51.038;7.216;2023-01-28T12:05:03;14.45;;;9.38;;
1128;SDS011;553;51.038;7.216;2023-01-28T12:10:42;16.30;;;9.98;;
1128;SDS011;553;51.038;7.216;2023-01-28T12:16:21;15.30;;;9.52;;
1128;SDS011;553;51.038;7.216;2023-01-28T12:30:39;15.27;;;10.73;;
1128;SDS011;553;51.038;7.216;2023-01-28T12:42:20;11.73;;;8.52;;
1128;SDS011;553;51.038;7.216;2023-01-28T12:45:12;13.35;;;8.63;;
1128;SDS011;553;51.038;7.216;2023-01-28T12:47:42;13.00;;;9.45;;
1128;SDS011;553;51.038;7.216;2023-01-28T12:50:19;13.75;;;8.70;;
1128;SDS011;553;51.038;7.216;2023-01-28T12:52:59;10.18;;;7.95;;
1128;SDS011;553;51.038;7.216;2023-01-28T12:55:37;13.20;;;8.02;;
1128;SDS011;553;51.038;7.216;2023-01-28T12:58:11;11.20;;;8.27;;
1128;SDS011;553;51.038;7.216;2023-01-28T13:00:50;9.52;;;7.65;;
1128;SDS011;553;51.038;7.216;2023-01-28T13:06:05;9.93;;;8.52;;
1128;SDS011;553;51.038;7.216;2023-01-28T13:08:40;9.23;;;8.20;;
1128;SDS011;553;51.038;7.216;2023-01-28T13:11:09;9.40;;;7.53;;
1128;SDS011;553;51.038;7.216;2023-01-28T13:13:40;13.40;;;9.18;;
1128;SDS011;553;51.038;7.216;2023-01-28T13:16:09;9.05;;;7.65;;
1128;SDS011;553;51.038;7.216;2023-01-28T13:23:50;9.88;;;7.72;;
1128;SDS011;553;51.038;7.216;2023-01-28T13:31:52;9.73;;;7.50;;
1128;SDS011;553;51.038;7.216;2023-01-28T13:36:59;10.15;;;7.20;;
1128;SDS011;553;51.038;7.216;2023-01-28T13:39:31;9.20;;;7.60;;
1128;SDS011;553;51.038;7.216;2023-01-28T13:42:08;10.45;;;7.50;;
1128;SDS011;553;51.038;7.216;2023-01-28T13:44:50;12.30;;;9.15;;
1128;SDS011;553;51.038;7.216;2023-01-28T13:47:22;11.43;;;9.68;;
1128;SDS011;553;51.038;7.216;2023-01-28T13:50:04;11.90;;;8.07;;
1128;SDS011;553;51.038;7.216;2023-01-28T13:55:34;11.90;;;7.50;;
1128;SDS011;553;51.038;7.216;2023-01-28T14:04:02;10.38;;;7.30;;
1128;SDS011;553;51.038;7.216;2023-01-28T14:09:30;18.65;;;11.65;;
1128;SDS011;553;51.038;7.216;2023-01-28T14:17:50;18.17;;;11.68;;
1128;SDS011;553;51.038;7.216;2023-01-28T14:20:20;14.07;;;9.13;;
1128;SDS011;553;51.038;7.216;2023-01-28T14:22:55;12.68;;;8.38;;
1128;SDS011;553;51.038;7.216;2023-01-28T14:31:30;11.60;;;6.90;;
1128;SDS011;553;51.038;7.216;2023-01-28T14:36:59;8.48;;;7.03;;
1128;SDS011;553;51.038;7.216;2023-01-28T14:39:42;10.60;;;8.05;;
1128;SDS011;553;51.038;7.216;2023-01-28T14:42:13;10.63;;;7.80;;
1128;SDS011;553;51.038;7.216;2023-01-28T14:44:45;9.15;;;7.00;;
1128;SDS011;553;51.038;7.216;2023-01-28T14:55:19;8.55;;;7.38;;
1128;SDS011;553;51.038;7.216;2023-01-28T14:57:55;14.38;;;9.13;;
1128;SDS011;553;51.038;7.216;2023-01-28T15:00:26;16.42;;;11.68;;
1128;SDS011;553;51.038;7.216;2023-01-28T15:02:55;12.20;;;10.20;;
1128;SDS011;553;51.038;7.216;2023-01-28T15:05:24;10.20;;;7.97;;
1128;SDS011;553;51.038;7.216;2023-01-28T15:07:54;8.45;;;6.85;;
1128;SDS011;553;51.038;7.216;2023-01-28T15:13:04;10.85;;;6.82;;
1128;SDS011;553;51.038;7.216;2023-01-28T15:15:39;7.55;;;6.63;;
1128;SDS011;553;51.038;7.216;2023-01-28T15:20:42;10.63;;;7.30;;
1128;SDS011;553;51.038;7.216;2023-01-28T15:23:11;10.10;;;7.38;;
1128;SDS011;553;51.038;7.216;2023-01-28T15:25:42;10.13;;;7.57;;
1128;SDS011;553;51.038;7.216;2023-01-28T15:28:53;8.88;;;7.45;;
1128;SDS011;553;51.038;7.216;2023-01-28T15:31:02;12.30;;;8.75;;
1128;SDS011;553;51.038;7.216;2023-01-28T15:33:29;10.00;;;6.90;;
1128;SDS011;553;51.038;7.216;2023-01-28T15:35:56;11.98;;;7.97;;
1128;SDS011;553;51.038;7.216;2023-01-28T15:38:25;9.60;;;8.05;;
1128;SDS011;553;51.038;7.216;2023-01-28T15:40:54;11.95;;;8.25;;
1128;SDS011;553;51.038;7.216;2023-01-28T15:43:30;11.63;;;8.65;;
1128;SDS011;553;51.038;7.216;2023-01-28T15:45:59;10.60;;;7.95;;
1128;SDS011;553;51.038;7.216;2023-01-28T15:48:28;10.13;;;8.05;;
1128;SDS011;553;51.038;7.216;2023-01-28T15:53:24;8.65;;;7.18;;
1128;SDS011;553;51.038;7.216;2023-01-28T15:56:02;11.10;;;7.65;;
1128;SDS011;553;51.038;7.216;2023-01-28T15:58:33;11.80;;;7.63;;
1128;SDS011;553;51.038;7.216;2023-01-28T16:01:07;10.07;;;7.90;;
1128;SDS011;553;51.038;7.216;2023-01-28T16:03:40;10.88;;;8.10;;
1128;SDS011;553;51.038;7.216;2023-01-28T16:11:11;10.30;;;7.25;;
1128;SDS011;553;51.038;7.216;2023-01-28T16:13:42;10.88;;;8.07;;
1128;SDS011;553;51.038;7.216;2023-01-28T16:16:09;12.10;;;8.20;;
1128;SDS011;553;51.038;7.216;2023-01-28T16:18:46;12.48;;;8.05;;
1128;SDS011;553;51.038;7.216;2023-01-28T16:21:18;12.32;;;9.25;;
1128;SDS011;553;51.038;7.216;2023-01-28T16:23:59;14.25;;;9.32;;
1128;SDS011;553;51.038;7.216;2023-01-28T16:26:29;14.30;;;9.23;;
1128;SDS011;553;51.038;7.216;2023-01-28T16:29:20;14.25;;;9.35;;
1128;SDS011;553;51.038;7.216;2023-01-28T16:31:45;13.05;;;9.38;;
1128;SDS011;553;51.038;7.216;2023-01-28T16:34:12;18.13;;;11.23;;
1128;SDS011;553;51.038;7.216;2023-01-28T16:36:38;17.65;;;11.70;;
1128;SDS011;553;51.038;7.216;2023-01-28T16:39:05;18.98;;;13.15;;
1128;SDS011;553;51.038;7.216;2023-01-28T16:41:32;22.90;;;14.50;;
1128;SDS011;553;51.038;7.216;2023-01-28T16:44:05;24.35;;;17.25;;
1128;SDS011;553;51.038;7.216;2023-01-28T16:46:32;24.92;;;14.90;;
1128;SDS011;553;51.038;7.216;2023-01-28T16:49:00;15.55;;;12.05;;
1128;SDS011;553;51.038;7.216;2023-01-28T16:51:27;15.25;;;11.98;;
1128;SDS011;553;51.038;7.216;2023-01-28T16:53:54;18.25;;;12.70;;
1128;SDS011;553;51.038;7.216;2023-01-28T16:56:23;18.08;;;12.23;;
1128;SDS011;553;51.038;7.216;2023-01-28T16:59:11;22.42;;;15.82;;
1128;SDS011;553;51.038;7.216;2023-01-28T17:01:39;21.25;;;15.60;;
1128;SDS011;553;51.038;7.216;2023-01-28T17:04:06;29.65;;;20.08;;
1128;SDS011;553;51.038;7.216;2023-01-28T17:06:38;32.90;;;21.45;;
1128;SDS011;553;51.038;7.216;2023-01-28T17:09:10;23.25;;;16.33;;
1128;SDS011;553;51.038;7.216;2023-01-28T17:11:37;23.75;;;16.63;;
1128;SDS011;553;51.038;7.216;2023-01-28T17:14:07;21.83;;;16.10;;
1128;SDS011;553;51.038;7.216;2023-01-28T17:16:35;30.77;;;19.67;;
1128;SDS011;553;51.038;7.216;2023-01-28T17:19:02;25.35;;;16.50;;
1128;SDS011;553;51.038;7.216;2023-01-28T17:21:29;23.05;;;14.68;;
1128;SDS011;553;51.038;7.216;2023-01-28T17:23:56;22.30;;;15.18;;
1128;SDS011;553;51.038;7.216;2023-01-28T17:26:25;21.02;;;13.32;;
1128;SDS011;553;51.038;7.216;2023-01-28T17:28:54;20.80;;;12.77;;
1128;SDS011;553;51.038;7.216;2023-01-28T17:31:21;19.00;;;14.15;;
1128;SDS011;553;51.038;7.216;2023-01-28T17:33:51;23.02;;;14.55;;
1128;SDS011;553;51.038;7.216;2023-01-28T17:36:23;22.33;;;14.70;;
1128;SDS011;553;51.038;7.216;2023-01-28T17:38:50;21.65;;;15.00;;
1128;SDS011;553;51.038;7.216;2023-01-28T17:41:17;20.33;;;14.40;;
1128;SDS011;553;51.038;7.216;2023-01-28T17:43:52;19.90;;;13.25;;
1128;SDS011;553;51.038;7.216;2023-01-28T17:46:20;20.08;;;14.30;;
1128;SDS011;553;51.038;7.216;2023-01-28T17:48:48;21.70;;;13.88;;
1128;SDS011;553;51.038;7.216;2023-01-28T17:51:15;25.40;;;15.30;;
1128;SDS011;553;51.038;7.216;2023-01-28T17:53:46;23.23;;;14.73;;
1128;SDS011;553;51.038;7.216;2023-01-28T17:56:15;27.00;;;15.93;;
1128;SDS011;553;51.038;7.216;2023-01-28T17:58:47;27.30;;;17.05;;
1128;SDS011;553;51.038;7.216;2023-01-28T18:01:18;27.55;;;17.25;;
1128;SDS011;553;51.038;7.216;2023-01-28T18:03:46;53.47;;;29.65;;
1128;SDS011;553;51.038;7.216;2023-01-28T18:06:13;37.38;;;22.23;;